Latest Weather Observations for Ouse

IDT60801

Issued at 7:35 am EST Wednesday 3 September 2014 (issued every 30 minutes, with the page automatically refreshed every 10 minutes)

About weather observations | Map of weather stations | Latest weather observations for TAS | Other Formats
Station Details ID: 095048 Name: OUSE FIRE STATION Lat: -42.48 Lon: 146.71 Height: 90.0 m
Data from the previous 72 hours. | See also: Recent months at Ouse
Date/Time
EST
Temp
°C
App
Temp
°C
Dew
Point
Rel
Hum
%
Delta-T
°C
Wind Press
QNH
hPa
Press
MSL
hPa
Rain
since 9 am
mm
Dir
 
Spd
km/h
Gust
km/h
Spd
kts
Gust
kts
03/07:30am 0.6 -1.3 0.5 99 0.0 SSE 0 0 0 0 1021.6 1021.7 0.0
03/07:00am -1.3 -3.5 -1.4 99 0.0 SSE 0 0 0 0 1021.5 1021.6 0.0
03/06:30am -1.3 -4.8 -1.4 99 0.0 SSE 7 9 4 5 1021.3 1021.4 0.0
03/06:00am -1.1 -4.6 -1.2 99 0.0 SSE 7 11 4 6 1021.3 1021.4 0.0
03/05:30am -1.3 -3.5 -1.4 99 0.0 CALM 0 0 0 0 1021.2 1021.3 0.0
03/05:00am -1.2 -4.5 -1.3 99 0.0 SSW 6 9 3 5 1021.1 1021.2 0.0
03/04:30am -1.2 -4.5 -1.3 99 0.0 S 6 9 3 5 1021.1 1021.2 0.0
03/04:00am -0.9 -4.2 -1.0 99 0.0 SSE 6 9 3 5 1021.2 1021.3 0.0
03/03:30am -0.3 -3.1 -0.4 99 0.0 S 4 9 2 5 1021.3 1021.4 0.0
03/03:00am -0.1 -2.1 -0.2 99 0.0 CALM 0 0 0 0 1021.6 1021.7 0.0
03/02:30am -0.3 -3.1 -0.4 99 0.0 SE 4 9 2 5 1021.8 1021.9 0.0
03/02:00am -0.5 -2.6 -0.8 98 0.1 CALM 0 0 0 0 1022.0 1022.1 0.0
03/01:30am -0.6 -3.1 -1.0 97 0.1 ENE 2 7 1 4 1022.3 1022.5 0.0
03/01:00am -0.2 -3.6 -0.6 97 0.1 SE 7 11 4 6 1022.0 1022.1 0.0
03/12:30am -0.1 -2.9 -0.7 96 0.2 SSE 4 7 2 4 1022.1 1022.2 0.0
03/12:00am -0.1 -2.6 -0.8 95 0.2 WSW 2 6 1 3 1022.1 1022.2 0.0
 
Date/Time
EST
Temp
°C
App
Temp
°C
Dew
Point
Rel
Hum
%
Delta-T
°C
Wind Press
QNH
hPa
Press
MSL
hPa
Rain
since 9 am
mm
Dir
 
Spd
km/h
Gust
km/h
Spd
kts
Gust
kts
02/11:30pm 0.3 -2.9 -0.5 94 0.3 NNE 6 7 3 4 1022.0 1022.1 0.0
02/11:00pm 0.5 -1.6 -0.5 93 0.4 CALM 0 0 0 0 1022.0 1022.1 0.0
02/10:30pm 1.1 -2.0 -0.1 92 0.4 N 6 7 3 4 1022.0 1022.1 0.0
02/10:00pm 1.6 -1.7 0.3 91 0.5 NNW 7 9 4 5 1022.1 1022.2 0.0
02/09:30pm 1.7 -1.6 0.2 90 0.6 E 7 9 4 5 1022.0 1022.1 0.0
02/09:00pm 2.6 -0.4 1.0 89 0.6 WNW 6 15 3 8 1021.8 1021.9 0.0
02/08:30pm 3.2 1.4 1.1 86 0.8 CALM 0 0 0 0 1021.6 1021.7 0.0
02/08:00pm 4.0 2.2 1.2 82 1.1 CALM 0 0 0 0 1021.3 1021.4 0.0
02/07:30pm 5.7 1.9 2.0 77 1.5 WNW 11 17 6 9 1020.9 1021.0 0.0
02/07:00pm 6.2 3.2 2.1 75 1.7 NW 7 9 4 5 1020.7 1020.8 0.0
02/06:30pm 7.9 3.0 2.2 67 2.4 W 17 22 9 12 1020.3 1020.4 0.0
02/06:00pm 8.5 3.1 2.7 67 2.4 WSW 20 32 11 17 1020.0 1020.1 0.0
02/05:30pm 8.8 4.5 3.4 69 2.3 W 15 19 8 10 1019.5 1019.6 0.0
02/05:00pm 10.1 4.8 3.2 62 3.0 WSW 20 26 11 14 1018.9 1019.0 0.0
02/04:30pm 11.3 7.0 3.3 58 3.5 SW 15 22 8 12 1018.5 1018.6 0.0
02/04:00pm 11.8 6.9 4.3 60 3.4 SW 19 28 10 15 1018.3 1018.4 0.0
02/03:30pm 12.8 8.3 4.0 55 4.0 WSW 17 26 9 14 1017.8 1017.9 0.0
02/03:00pm 12.7 6.3 3.1 52 4.3 WSW 26 33 14 18 1017.6 1017.7 0.0
02/02:30pm 12.6 8.0 3.5 54 4.1 W 17 28 9 15 1017.4 1017.5 0.0
02/02:00pm 13.0 8.0 3.4 52 4.3 WSW 19 26 10 14 1017.4 1017.5 0.0
02/01:30pm 12.3 7.8 1.9 49 4.5 WSW 15 26 8 14 1017.5 1017.6 0.0
02/01:00pm 12.3 6.2 0.7 45 4.9 SSW 22 30 12 16 1017.6 1017.7 0.0
02/12:30pm 13.9 8.6 3.1 48 4.9 SW 20 32 11 17 1017.6 1017.7 0.0
02/12:00pm 12.8 7.6 2.6 50 4.5 W 19 30 10 16 1017.7 1017.8 0.0
02/11:30am 12.5 6.9 3.2 53 4.1 WSW 22 28 12 15 1017.9 1018.0 0.0
02/11:00am 11.4 6.0 2.4 54 3.9 W 20 26 11 14 1018.0 1018.1 0.0
02/10:30am 10.5 7.9 4.4 66 2.7 W 7 15 4 8 1018.1 1018.2 0.0
02/10:00am 7.2 4.9 5.7 90 0.7 S 7 11 4 6 1018.1 1018.2 0.0
02/09:30am 5.7 2.9 5.3 97 0.2 SE 9 13 5 7 1018.1 1018.2 0.0
02/09:00am 5.5 3.7 5.5 100 0.0 N 4 7 2 4 1018.0 1018.1 2.8
02/08:30am 3.2 0.4 3.2 100 0.0 N 7 11 4 6 1017.9 1018.0 2.8
02/08:00am 0.9 -1.3 0.9 100 0.0 NNW 2 7 1 4 1018.0 1018.1 2.8
02/07:30am -0.2 -2.2 -0.2 100 0.0 CALM 0 0 0 0 1017.8 1017.9 2.8
02/07:00am -0.5 -2.6 -0.5 100 0.0 CALM 0 0 0 0 1017.4 1017.5 2.8
02/06:30am -0.4 -3.6 -0.4 100 0.0 NW 6 9 3 5 1017.0 1017.1 2.8
02/06:00am 0.2 -1.8 0.2 100 0.0 CALM 0 0 0 0 1016.5 1016.6 2.8
02/05:30am 0.9 -0.9 0.9 100 0.0 CALM 0 0 0 0 1015.8 1016.0 2.8
02/05:00am 1.0 -2.0 1.0 100 0.0 ESE 6 11 3 6 1015.3 1015.5 2.8
02/04:30am 1.5 -2.0 1.5 100 0.0 NNW 9 11 5 6 1014.7 1014.9 2.8
02/04:00am 2.1 0.4 2.1 100 0.0 CALM 0 7 0 4 1014.5 1014.7 2.8
02/03:30am 2.9 1.4 2.9 100 0.0 CALM 0 0 0 0 1014.2 1014.4 2.8
02/03:00am 3.3 1.5 3.3 100 0.0 SSE 2 9 1 5 1013.9 1014.1 2.8
02/02:30am 3.2 0.4 3.2 100 0.0 NW 7 11 4 6 1013.5 1013.7 2.8
02/02:00am 2.9 0.0 2.8 99 0.0 N 7 9 4 5 1013.3 1013.5 2.8
02/01:30am 3.7 2.3 3.6 99 0.0 CALM 0 0 0 0 1013.2 1013.4 2.8
02/01:00am 4.7 2.7 4.6 99 0.0 NW 4 6 2 3 1012.9 1013.0 2.8
02/12:30am 5.7 4.3 5.7 100 0.0 SE 2 7 1 4 1012.6 1012.7 2.8
02/12:00am 5.4 4.3 5.1 98 0.1 CALM 0 0 0 0 1012.4 1012.5 2.8
 
Date/Time
EST
Temp
°C
App
Temp
°C
Dew
Point
Rel
Hum
%
Delta-T
°C
Wind Press
QNH
hPa
Press
MSL
hPa
Rain
since 9 am
mm
Dir
 
Spd
km/h
Gust
km/h
Spd
kts
Gust
kts
01/11:30pm 6.2 3.9 5.9 98 0.1 NNW 7 9 4 5 1011.9 1012.0 2.8
01/11:00pm 6.6 5.8 6.3 98 0.1 CALM 0 0 0 0 1011.8 1011.9 2.8
01/10:30pm 6.5 4.4 5.9 96 0.3 NW 6 7 3 4 1011.5 1011.6 2.8
01/10:00pm 6.8 5.9 5.9 94 0.4 CALM 0 0 0 0 1011.1 1011.2 2.8
01/09:30pm 7.4 5.3 5.9 90 0.7 SW 6 11 3 6 1010.6 1010.7 2.8
01/09:00pm 7.9 4.2 6.2 89 0.8 SSE 15 30 8 16 1010.6 1010.7 2.4
01/08:30pm 8.1 5.2 6.6 90 0.7 S 11 15 6 8 1009.8 1009.9 2.0
01/08:00pm 8.0 7.4 7.6 97 0.2 CALM 0 6 0 3 1009.1 1009.2 2.0
01/07:30pm 7.9 6.6 7.8 99 0.0 ENE 4 7 2 4 1008.4 1008.5 2.0
01/07:00pm 8.2 7.7 7.8 97 0.2 CALM 0 0 0 0 1008.0 1008.1 2.0
01/06:30pm 8.6 7.8 8.0 96 0.3 NNW 2 7 1 4 1007.5 1007.6 2.0
01/06:00pm 8.7 7.1 8.1 96 0.3 N 6 11 3 6 1006.9 1007.0 1.8
01/05:30pm 9.0 6.9 8.4 96 0.3 NNW 9 11 5 6 1006.2 1006.3 1.8
01/05:00pm 9.4 6.9 8.2 92 0.6 WNW 11 13 6 7 1005.6 1005.7 1.8
01/04:30pm 10.2 7.1 7.1 81 1.5 ESE 13 20 7 11 1004.6 1004.8 1.0
01/04:00pm 10.8 8.6 7.7 81 1.5 SE 9 17 5 9 1003.9 1004.0 1.0
01/03:30pm 11.1 7.8 8.1 82 1.5 SE 15 22 8 12 1003.2 1003.3 1.0
01/03:00pm 12.0 10.8 9.4 84 1.3 NW 6 11 3 6 1002.7 1002.8 1.0
01/02:30pm 11.5 10.4 9.9 90 0.8 N 6 9 3 5 1002.4 1002.5 1.0
01/02:00pm 11.1 9.2 9.0 87 1.1 NNW 9 13 5 7 1002.4 1002.5 1.0
01/01:30pm 11.2 8.8 8.8 85 1.2 NW 11 17 6 9 1002.1 1002.2 0.8
01/01:00pm 11.9 9.3 9.3 84 1.3 NW 13 20 7 11 1002.0 1002.1 0.2
01/12:30pm 12.6 9.5 8.9 78 1.9 WNW 15 24 8 13 1001.8 1001.9 0.0
01/12:00pm 13.0 11.1 8.9 76 2.1 NNW 9 13 5 7 1001.7 1001.8 0.0
01/11:30am 15.2 10.7 8.4 64 3.4 NW 22 41 12 22 1001.1 1001.2 0.0
01/11:00am 15.9 12.2 7.9 59 4.1 NW 17 28 9 15 1001.1 1001.2 0.0
01/10:30am 15.9 11.8 7.9 59 4.0 NW 19 32 10 17 1001.2 1001.3 0.0
01/10:00am 15.7 11.4 7.2 57 4.2 NNW 19 32 10 17 1001.3 1001.4 0.0
01/09:32am 15.8 9.8 7.0 56 4.4 NNW 28 46 15 25 1001.6 1001.8 0.0
01/09:30am 15.7 9.4 7.2 57 4.2 NNW 30 46 16 25 1001.6 1001.8 0.0
01/09:22am 15.7 8.0 7.0 56 4.3 NNW 37 46 20 25 1001.7 1001.9 0.0
01/09:00am 15.3 13.1 7.8 61 3.8 NNW 9 17 5 9 1002.0 1002.2 0.2
01/08:30am 14.5 11.8 7.5 63 3.5 NNW 11 20 6 11 1002.3 1002.5 0.2
01/08:00am 13.5 10.8 7.5 67 3.0 NNW 11 17 6 9 1002.6 1002.8 0.2
01/07:30am 10.4 8.3 6.7 78 1.7 NNW 7 11 4 6 1002.9 1003.1 0.2
01/07:00am 11.4 8.9 6.7 73 2.2 NNW 9 11 5 6 1002.9 1003.1 0.2
01/06:30am 13.3 10.9 6.9 65 3.1 NNW 9 15 5 8 1003.3 1003.5 0.2
01/06:00am 14.0 11.2 7.1 63 3.4 NNW 11 19 6 10 1003.5 1003.7 0.2
01/05:30am 13.9 10.8 7.2 64 3.3 N 13 20 7 11 1003.6 1003.8 0.2
01/05:00am 14.4 11.4 7.7 64 3.3 N 13 22 7 12 1003.8 1004.0 0.2
01/04:30am 11.7 9.4 7.6 76 2.0 N 9 17 5 9 1003.9 1004.1 0.2
01/04:00am 9.1 6.6 8.0 93 0.5 N 11 15 6 8 1004.2 1004.4 0.2
01/03:30am 7.1 4.2 6.5 96 0.3 N 11 15 6 8 1004.8 1004.9 0.2
01/03:00am 7.1 5.0 6.5 96 0.3 NW 7 9 4 5 1005.4 1005.5 0.2
01/02:30am 6.4 4.1 5.7 95 0.3 N 7 11 4 6 1005.9 1006.0 0.2
01/02:00am 7.0 5.7 6.1 94 0.4 SW 2 6 1 3 1006.0 1006.1 0.2
01/01:30am 7.3 5.1 6.1 92 0.5 ESE 7 11 4 6 1006.5 1006.7 0.2
01/01:00am 8.0 6.1 6.5 90 0.7 NNW 6 7 3 4 1006.9 1007.1 0.2
01/12:30am 8.9 6.5 7.2 89 0.8 NNW 9 13 5 7 1007.5 1007.7 0.2
01/12:00am 7.5 5.5 6.3 92 0.6 N 6 7 3 4 1008.1 1008.3 0.2
 
Date/Time
EST
Temp
°C
App
Temp
°C
Dew
Point
Rel
Hum
%
Delta-T
°C
Wind Press
QNH
hPa
Press
MSL
hPa
Rain
since 9 am
mm
Dir
 
Spd
km/h
Gust
km/h
Spd
kts
Gust
kts
31/11:30pm 8.3 7.2 6.9 91 0.7 NW 2 7 1 4 1008.1 1008.3 0.2
31/11:00pm 8.7 6.9 7.2 90 0.7 N 6 9 3 5 1008.5 1008.7 0.2
31/10:30pm 8.9 7.2 7.4 90 0.7 NNW 6 9 3 5 1008.9 1009.1 0.2
31/10:00pm 9.2 7.5 7.5 89 0.8 NNW 6 9 3 5 1009.4 1009.6 0.2
31/09:30pm 9.3 7.0 7.6 89 0.8 NNW 9 9 5 5 1009.7 1009.9 0.2
31/09:00pm 9.5 7.8 7.6 88 0.9 N 6 9 3 5 1009.8 1010.0 0.2
31/08:30pm 9.9 8.2 7.7 86 1.1 N 6 9 3 5 1009.9 1010.1 0.2
31/08:00pm 9.9 8.6 7.5 85 1.2 NNW 4 6 2 3 1010.1 1010.3 0.2
31/07:30pm 10.8 8.9 7.7 81 1.5 N 7 7 4 4 1010.2 1010.4 0.2
31/07:00pm 12.3 10.6 8.2 76 2.0 N 7 11 4 6 1010.3 1010.5 0.2
31/06:30pm 13.1 10.9 8.0 71 2.5 N 9 13 5 7 1010.3 1010.5 0.2
31/06:00pm 13.8 11.7 8.4 70 2.7 NNW 9 11 5 6 1010.4 1010.6 0.2
31/05:30pm 14.5 12.2 8.9 69 2.9 N 11 17 6 9 1010.3 1010.5 0.2
31/05:00pm 15.2 13.3 8.9 66 3.2 N 9 17 5 9 1010.4 1010.6 0.2
31/04:30pm 16.3 13.6 8.8 61 3.9 NNW 13 19 7 10 1010.4 1010.6 0.2
31/04:00pm 17.4 14.5 8.3 55 4.7 NNW 13 19 7 10 1010.7 1010.9 0.2
31/03:30pm 17.3 14.5 8.4 56 4.6 N 13 17 7 9 1010.9 1011.1 0.2
31/03:00pm 17.4 15.9 9.1 58 4.3 WNW 7 11 4 6 1011.2 1011.4 0.2
31/02:30pm 17.6 15.7 9.0 57 4.5 NW 9 13 5 7 1011.5 1011.7 0.2
31/02:00pm 17.5 15.6 8.9 57 4.5 NNW 9 13 5 7 1011.9 1012.1 0.2
31/01:30pm 16.1 15.9 9.1 63 3.6 CALM 0 0 0 0 1012.3 1012.5 0.0
31/01:00pm 15.2 14.8 8.2 63 3.5 CALM 0 0 0 0 1012.7 1012.9 0.0
31/12:30pm 14.7 13.1 8.0 64 3.4 SSE 6 7 3 4 1013.3 1013.5 0.0
31/12:00pm 14.1 12.5 8.1 67 3.0 S 6 7 3 4 1013.9 1014.1 0.0
31/11:30am 13.2 11.5 7.4 68 2.8 SE 6 7 3 4 1014.4 1014.6 0.0
31/11:00am 12.2 10.1 6.7 69 2.6 S 7 11 4 6 1014.9 1015.1 0.0
31/10:30am 10.8 8.6 6.2 73 2.2 SSE 7 11 4 6 1015.5 1015.8 0.0
31/10:00am 8.7 6.4 4.7 76 1.8 SE 6 11 3 6 1016.3 1016.5 0.0
31/09:30am 6.9 4.4 3.5 79 1.4 SE 6 7 3 4 1016.9 1017.1 0.0
31/09:00am 5.2 3.7 2.9 85 0.9 CALM 0 0 0 0 1017.3 1017.5 0.0
31/08:30am 3.2 1.7 2.8 97 0.2 CALM 0 0 0 0 1017.7 1017.9 0.0
31/08:00am 1.0 -0.8 1.0 100 0.0 CALM 0 0 0 0 1017.8 1018.0 0.0

Other Formats:

Comma delimited format used in spreadsheet applications
http://www.bom.gov.au/fwo/IDT60801/IDT60801.94957.axf

JavaScript Object Notation format (JSON) in row-major order
http://www.bom.gov.au/fwo/IDT60801/IDT60801.94957.json